Terminal Aerodrome Forecast
Issued by NWS

Home | Current Version | Previous Version | Text Only | Print | Product List | Glossary Off
Versions: 1 2 3 4 5 6 7 8 9 10 11 12 13 14 15 16

000
FTUS43 KGRB 130500
TAFATW
TAF
KATW 130521Z 1306/1406 32005KT P6SM -DZ SCT025 SCT080
      TEMPO 1306/1309 6SM -RA BR SCT010 BKN025
     FM131000 30007KT P6SM SCT035 BKN070
     FM131600 30005KT P6SM FEW040 SCT090
     FM132300 VRB03KT P6SM SCT100=

USA.gov is the U.S. government's official web portal to all federal, state and local government web resources and services.